createdAt,value
2018-11-23T00:00:58.055Z,51.83
2018-11-23T00:03:25.863Z,42.33
2018-11-23T00:05:53.591Z,57.93
2018-11-23T00:08:38.401Z,53.78
2018-11-23T00:11:06.257Z,46.65
2018-11-23T00:13:34.599Z,44.13
2018-11-23T00:16:02.616Z,55.90
2018-11-23T00:18:31.571Z,51.65
2018-11-23T00:20:59.270Z,51.95
2018-11-23T00:23:26.970Z,48.23
2018-11-23T00:25:54.744Z,48.87
2018-11-23T00:28:22.559Z,44.40
2018-11-23T00:30:50.313Z,41.05
2018-11-23T00:33:18.094Z,44.45
2018-11-23T00:35:45.854Z,45.60
2018-11-23T00:38:13.611Z,49.03
2018-11-23T00:40:41.613Z,57.27
2018-11-23T00:43:09.650Z,59.58
2018-11-23T00:45:42.768Z,59.50
2018-11-23T00:48:05.526Z,56.02
2018-11-23T00:50:33.225Z,61.02
2018-11-23T00:53:01.305Z,47.50
2018-11-23T00:55:29.764Z,52.35
2018-11-23T00:57:57.796Z,47.08
2018-11-23T01:00:26.994Z,45.80
2018-11-23T01:02:56.093Z,50.92
2018-11-23T01:05:23.944Z,44.58
2018-11-23T01:07:51.933Z,47.78
2018-11-23T01:10:21.014Z,51.48
2018-11-23T01:12:49.694Z,49.33
2018-11-23T01:15:17.669Z,36.28
2018-11-23T01:17:45.441Z,44.80
2018-11-23T01:20:15.692Z,44.75
2018-11-23T01:22:44.328Z,39.10
2018-11-23T01:25:13.522Z,44.80
2018-11-23T01:27:42.218Z,50.98
2018-11-23T01:30:12.648Z,40.65
2018-11-23T01:32:40.504Z,41.40
2018-11-23T01:35:08.296Z,39.53
2018-11-23T01:37:36.101Z,42.30
2018-11-23T01:40:04.225Z,39.35
2018-11-23T01:42:32.712Z,42.88
2018-11-23T01:45:00.450Z,46.65
2018-11-23T01:47:28.331Z,43.85
2018-11-23T01:49:55.992Z,39.23
2018-11-23T01:52:23.684Z,38.20
2018-11-23T01:54:51.371Z,43.13
2018-11-23T01:57:19.175Z,47.00
2018-11-23T01:59:46.846Z,48.70
2018-11-23T02:02:14.561Z,47.13
2018-11-23T02:04:42.330Z,37.55
2018-11-23T02:07:10.128Z,39.20
2018-11-23T02:09:38.198Z,35.95
2018-11-23T02:12:06.084Z,41.05
2018-11-23T02:14:33.757Z,38.23
2018-11-23T02:17:01.413Z,45.55
2018-11-23T02:19:29.150Z,43.10
2018-11-23T02:21:56.960Z,35.30
2018-11-23T02:24:24.652Z,40.38
2018-11-23T02:26:52.373Z,46.00
2018-11-23T02:29:20.325Z,36.23
2018-11-23T02:31:49.027Z,44.85
2018-11-23T02:34:16.800Z,47.27
2018-11-23T02:36:44.559Z,44.13
2018-11-23T02:39:12.563Z,42.53
2018-11-23T02:41:40.535Z,44.18
2018-11-23T02:44:08.326Z,42.17
2018-11-23T02:46:36.170Z,51.08
2018-11-23T02:49:04.448Z,37.17
2018-11-23T02:51:32.168Z,39.23
2018-11-23T02:54:00.084Z,39.48
2018-11-23T02:56:37.123Z,37.42
2018-11-23T02:59:05.392Z,31.77
2018-11-23T03:01:33.097Z,40.10
2018-11-23T03:04:00.828Z,39.80
2018-11-23T03:06:28.495Z,43.83
2018-11-23T03:08:56.208Z,45.50
2018-11-23T03:11:23.931Z,40.08
2018-11-23T03:13:51.605Z,47.60
2018-11-23T03:16:19.337Z,40.67
2018-11-23T03:18:47.012Z,42.70
2018-11-23T03:21:14.936Z,40.98
2018-11-23T03:23:42.669Z,38.98
2018-11-23T03:26:10.666Z,42.80
2018-11-23T03:28:38.331Z,45.58
2018-11-23T03:31:12.238Z,40.73
2018-11-23T03:33:33.736Z,41.60
2018-11-23T03:36:01.842Z,36.25
2018-11-23T03:38:29.587Z,42.40
2018-11-23T03:40:57.435Z,38.73
2018-11-23T03:43:25.237Z,40.25
2018-11-23T03:45:52.989Z,42.73
2018-11-23T03:48:20.716Z,37.98
2018-11-23T03:50:48.424Z,41.98
2018-11-23T03:53:16.080Z,35.55
2018-11-23T03:55:43.794Z,41.63
2018-11-23T03:58:11.538Z,37.85
2018-11-23T04:00:39.308Z,41.58
2018-11-23T04:03:07.130Z,44.75
2018-11-23T04:05:35.055Z,38.65
2018-11-23T04:08:02.769Z,40.20
2018-11-23T04:10:30.567Z,39.58
2018-11-23T04:12:58.305Z,45.25
2018-11-23T04:15:26.111Z,38.48
2018-11-23T04:17:53.928Z,40.23
2018-11-23T04:20:21.807Z,36.15
2018-11-23T04:22:49.633Z,33.92
2018-11-23T04:25:17.365Z,44.00
2018-11-23T04:27:45.137Z,39.03
2018-11-23T04:30:14.269Z,34.30
2018-11-23T04:32:42.426Z,37.13
2018-11-23T04:35:12.363Z,51.92
2018-11-23T04:37:40.515Z,34.40
2018-11-23T04:40:09.617Z,28.67
2018-11-23T04:42:37.910Z,34.95
2018-11-23T04:45:06.246Z,30.50
2018-11-23T04:47:34.051Z,32.00
2018-11-23T04:50:01.751Z,39.42
2018-11-23T04:52:29.449Z,31.15
2018-11-23T04:54:57.142Z,33.40
2018-11-23T04:57:24.822Z,30.10
2018-11-23T04:59:52.547Z,27.40
2018-11-23T05:02:20.801Z,36.08
2018-11-23T05:04:48.580Z,36.68
2018-11-23T05:07:16.423Z,33.40
2018-11-23T05:09:44.246Z,30.95
2018-11-23T05:12:12.041Z,34.83
2018-11-23T05:14:39.917Z,35.78
2018-11-23T05:17:07.713Z,37.98
2018-11-23T05:19:35.557Z,30.75
2018-11-23T05:22:03.346Z,31.42
2018-11-23T05:24:31.046Z,28.23
2018-11-23T05:26:58.764Z,36.28
2018-11-23T05:29:27.314Z,38.78
2018-11-23T05:31:55.021Z,29.63
2018-11-23T05:34:22.733Z,31.90
2018-11-23T05:36:50.811Z,32.03
2018-11-23T05:39:18.542Z,43.38
2018-11-23T05:41:47.368Z,40.10
2018-11-23T05:44:14.193Z,35.65
2018-11-23T05:46:41.879Z,29.48
2018-11-23T05:49:11.204Z,45.12
2018-11-23T05:51:38.914Z,51.83
2018-11-23T05:54:06.702Z,44.70
2018-11-23T05:56:34.356Z,44.33
2018-11-23T05:59:02.058Z,39.58
2018-11-23T06:01:29.799Z,39.55
2018-11-23T06:03:57.497Z,46.60
2018-11-23T06:06:25.938Z,50.35
2018-11-23T06:08:52.908Z,34.23
2018-11-23T06:11:20.629Z,34.80
2018-11-23T06:13:48.253Z,50.80
2018-11-23T06:16:15.950Z,32.50
2018-11-23T06:18:43.646Z,39.00
2018-11-23T06:21:11.616Z,42.40
2018-11-23T06:23:39.797Z,46.45
2018-11-23T06:26:17.573Z,46.05
2018-11-23T06:28:45.313Z,63.48
2018-11-23T06:31:13.493Z,59.67
2018-11-23T06:33:43.101Z,50.20
2018-11-23T06:36:10.860Z,44.20
2018-11-23T06:38:38.977Z,53.70
2018-11-23T06:41:10.427Z,39.70
2018-11-23T06:43:35.823Z,50.58
2018-11-23T06:46:04.845Z,39.30
2018-11-23T06:48:32.836Z,34.73
2018-11-23T06:51:00.572Z,35.68
2018-11-23T06:53:28.365Z,39.25
2018-11-23T06:55:56.982Z,39.78
2018-11-23T06:58:25.788Z,38.23
2018-11-23T07:00:54.168Z,38.42
2018-11-23T07:03:22.126Z,46.48
2018-11-23T07:05:49.995Z,41.45
2018-11-23T07:08:17.875Z,44.27
2018-11-23T07:10:45.764Z,39.67
2018-11-23T07:13:13.702Z,49.55
2018-11-23T07:15:41.795Z,40.52
2018-11-23T07:18:10.284Z,51.10
2018-11-23T07:20:38.511Z,36.73
2018-11-23T07:23:06.717Z,43.87
2018-11-23T07:25:34.665Z,40.10
2018-11-23T07:28:03.892Z,39.90
2018-11-23T07:30:32.058Z,34.98
2018-11-23T07:32:59.883Z,38.45
2018-11-23T07:35:27.799Z,46.55
2018-11-23T07:37:55.941Z,56.00
2018-11-23T07:40:36.740Z,37.88
2018-11-23T07:43:04.597Z,39.98
2018-11-23T07:45:33.598Z,41.18
2018-11-23T07:48:01.413Z,35.60
2018-11-23T07:50:29.518Z,33.38
2018-11-23T07:52:57.291Z,34.95
2018-11-23T07:55:25.011Z,36.10
2018-11-23T07:57:52.804Z,46.17
2018-11-23T08:00:22.137Z,37.93
2018-11-23T08:02:50.960Z,41.17
2018-11-23T08:05:19.496Z,40.70
2018-11-23T08:07:47.297Z,60.57
2018-11-23T08:10:15.014Z,59.33
2018-11-23T08:12:44.933Z,55.43
2018-11-23T08:15:16.778Z,47.50
2018-11-23T08:17:45.813Z,40.50
2018-11-23T08:20:15.830Z,47.00
2018-11-23T08:22:43.680Z,41.63
2018-11-23T08:25:12.617Z,41.90
2018-11-23T08:27:40.933Z,39.77
2018-11-23T08:30:14.890Z,41.57
2018-11-23T08:32:42.725Z,54.07
2018-11-23T08:35:10.574Z,53.73
2018-11-23T08:37:38.559Z,38.83
2018-11-23T08:40:12.896Z,32.87
2018-11-23T08:42:41.427Z,32.60
2018-11-23T08:45:11.153Z,31.80
2018-11-23T08:47:38.986Z,32.77
2018-11-23T08:50:10.514Z,25.30
2018-11-23T08:52:38.284Z,28.37
2018-11-23T08:55:06.579Z,31.80
2018-11-23T08:57:34.497Z,35.90
2018-11-23T09:00:02.409Z,29.43
2018-11-23T09:02:30.261Z,35.37
2018-11-23T09:04:57.969Z,31.80
2018-11-23T09:07:31.302Z,31.00
2018-11-23T09:09:59.046Z,38.50
2018-11-23T09:12:27.429Z,35.80
2018-11-23T09:14:55.249Z,33.03
2018-11-23T09:17:35.918Z,36.07
2018-11-23T09:20:04.595Z,32.13
2018-11-23T09:22:32.305Z,34.93
2018-11-23T09:25:00.664Z,39.50
2018-11-23T09:27:28.321Z,40.50
2018-11-23T09:29:56.041Z,44.67
2018-11-23T09:32:23.846Z,38.03
2018-11-23T09:34:52.606Z,33.33
2018-11-23T09:37:20.335Z,30.50
2018-11-23T09:39:48.041Z,35.57
2018-11-23T09:42:15.770Z,31.73
2018-11-23T09:44:43.497Z,34.47
2018-11-23T09:47:11.237Z,36.60
2018-11-23T09:49:42.143Z,27.57
2018-11-23T09:52:10.880Z,32.57
2018-11-23T09:54:38.577Z,32.40
2018-11-23T09:57:06.551Z,36.30
2018-11-23T09:59:34.269Z,37.03
2018-11-23T10:02:01.967Z,32.47
2018-11-23T10:04:29.755Z,31.07
2018-11-23T10:06:57.478Z,29.70
2018-11-23T10:09:25.193Z,31.73
2018-11-23T10:11:53.656Z,28.63
2018-11-23T10:14:22.853Z,27.77
2018-11-23T10:16:50.575Z,31.53
2018-11-23T10:19:33.561Z,25.80
2018-11-23T10:22:01.333Z,24.60
2018-11-23T10:24:29.117Z,27.27
2018-11-23T10:26:56.769Z,23.00
2018-11-23T10:29:24.489Z,29.40
2018-11-23T10:31:52.242Z,26.03
2018-11-23T10:34:19.969Z,27.27
2018-11-23T10:36:47.738Z,23.87
2018-11-23T10:39:16.789Z,30.27
2018-11-23T10:41:44.499Z,23.70
2018-11-23T10:44:19.081Z,26.30
2018-11-23T10:46:53.033Z,20.90
2018-11-23T10:49:20.729Z,21.60
2018-11-23T10:51:48.489Z,21.47
2018-11-23T10:54:16.230Z,22.10
2018-11-23T10:56:45.664Z,21.07
2018-11-23T10:59:13.434Z,19.83
2018-11-23T11:01:46.734Z,21.97
2018-11-23T11:04:52.857Z,23.53
2018-11-23T11:07:20.657Z,16.03
2018-11-23T11:09:48.461Z,16.67
2018-11-23T11:12:16.223Z,16.30
2018-11-23T11:14:43.917Z,16.53
2018-11-23T11:17:11.640Z,17.53
2018-11-23T11:19:39.345Z,18.10
2018-11-23T11:22:07.035Z,13.97
2018-11-23T11:24:34.716Z,15.80
2018-11-23T11:27:02.430Z,19.40
2018-11-23T11:29:30.161Z,19.60
2018-11-23T11:31:57.916Z,20.43
2018-11-23T11:34:25.649Z,20.83
2018-11-23T11:36:53.316Z,13.87
2018-11-23T11:39:21.021Z,13.97
2018-11-23T11:41:48.735Z,18.57
2018-11-23T11:44:16.427Z,14.57
2018-11-23T11:46:44.152Z,16.60
2018-11-23T11:49:11.921Z,17.43
2018-11-23T11:51:40.901Z,16.10
2018-11-23T11:54:08.708Z,14.23
2018-11-23T11:56:36.486Z,18.70
2018-11-23T11:59:04.294Z,16.63
2018-11-23T12:01:32.041Z,15.80
2018-11-23T12:04:00.449Z,17.50
2018-11-23T12:06:28.227Z,13.37
2018-11-23T12:08:55.984Z,20.33
2018-11-23T12:11:23.742Z,15.10
2018-11-23T12:13:51.472Z,23.53
2018-11-23T12:16:19.290Z,17.50
2018-11-23T12:18:47.282Z,19.33
2018-11-23T12:21:15.017Z,12.63
2018-11-23T12:23:42.844Z,17.97
2018-11-23T12:26:10.617Z,20.07
2018-11-23T12:28:38.372Z,15.43
2018-11-23T12:31:06.812Z,12.93
2018-11-23T12:33:34.568Z,10.00
2018-11-23T12:36:02.339Z,9.80
2018-11-23T12:38:30.642Z,9.90
2018-11-23T12:40:58.371Z,12.33
2018-11-23T12:43:26.082Z,9.50
2018-11-23T12:45:53.918Z,10.10
2018-11-23T12:48:21.684Z,10.23
2018-11-23T12:50:49.514Z,15.23
2018-11-23T12:53:17.242Z,10.03
2018-11-23T12:55:45.025Z,13.83
2018-11-23T12:58:13.593Z,14.47
2018-11-23T13:00:41.310Z,14.93
2018-11-23T13:03:09.044Z,16.53
2018-11-23T13:05:36.833Z,15.10
2018-11-23T13:08:05.737Z,16.47
2018-11-23T13:10:33.487Z,15.23
2018-11-23T13:13:01.678Z,13.97
2018-11-23T13:15:29.541Z,15.83
2018-11-23T13:17:58.161Z,13.37
2018-11-23T13:20:26.772Z,12.20
2018-11-23T13:22:54.529Z,15.87
2018-11-23T13:25:24.930Z,13.20
2018-11-23T13:27:53.860Z,14.83
2018-11-23T13:30:24.221Z,11.03
2018-11-23T13:32:52.113Z,17.20
2018-11-23T13:35:20.832Z,12.47
2018-11-23T13:37:48.684Z,15.00
2018-11-23T13:40:17.765Z,14.93
2018-11-23T13:42:46.047Z,14.20
2018-11-23T13:45:15.331Z,15.20
2018-11-23T13:47:43.169Z,12.60
2018-11-23T13:50:13.419Z,13.17
2018-11-23T13:52:42.010Z,17.07
2018-11-23T13:55:09.773Z,14.30
2018-11-23T13:57:37.558Z,16.33
2018-11-23T14:00:14.726Z,17.50
2018-11-23T14:02:42.816Z,14.30
2018-11-23T14:05:12.269Z,13.03
2018-11-23T14:07:40.480Z,19.00
2018-11-23T14:10:10.389Z,13.87
2018-11-23T14:12:38.143Z,14.73
2018-11-23T14:15:08.687Z,13.57
2018-11-23T14:17:36.472Z,14.73
2018-11-23T14:20:05.476Z,15.73
2018-11-23T14:22:33.256Z,16.90
2018-11-23T14:25:00.985Z,12.83
2018-11-23T14:27:29.312Z,13.43
2018-11-23T14:29:57.068Z,12.53
2018-11-23T14:32:24.786Z,12.83
2018-11-23T14:34:52.511Z,12.23
2018-11-23T14:37:20.257Z,15.23
2018-11-23T14:39:48.006Z,11.40
2018-11-23T14:42:16.354Z,19.23
2018-11-23T14:44:44.120Z,10.93
2018-11-23T14:47:11.910Z,12.00
2018-11-23T14:49:39.810Z,12.47
2018-11-23T14:52:07.549Z,12.10
2018-11-23T14:54:35.378Z,11.57
2018-11-23T14:57:03.167Z,14.30
2018-11-23T14:59:30.922Z,13.87
2018-11-23T15:01:59.617Z,11.73
2018-11-23T15:04:27.534Z,11.63
2018-11-23T15:06:55.315Z,14.13
2018-11-23T15:09:23.054Z,16.07
2018-11-23T15:11:50.788Z,13.10
2018-11-23T15:14:18.491Z,13.70
2018-11-23T15:16:46.248Z,15.63
2018-11-23T15:19:14.009Z,14.23
2018-11-23T15:21:41.877Z,12.43
2018-11-23T15:24:09.605Z,13.30
2018-11-23T15:26:37.413Z,18.37
2018-11-23T15:29:05.457Z,14.73
2018-11-23T15:31:33.235Z,12.90
2018-11-23T15:34:01.956Z,13.93
2018-11-23T15:36:29.710Z,12.47
2018-11-23T15:38:57.495Z,13.23
2018-11-23T15:41:25.266Z,12.70
2018-11-23T15:43:53.088Z,11.50
2018-11-23T15:46:20.842Z,13.13
2018-11-23T15:48:48.601Z,13.00
2018-11-23T15:51:16.356Z,12.50
2018-11-23T15:53:44.431Z,15.73
2018-11-23T15:56:12.246Z,15.10
2018-11-23T15:58:40.029Z,15.23
2018-11-23T16:01:07.787Z,23.40
2018-11-23T16:03:35.541Z,16.00
2018-11-23T16:06:03.401Z,15.47
2018-11-23T16:08:31.037Z,16.53
2018-11-23T16:10:59.454Z,18.67
2018-11-23T16:13:27.149Z,23.20
2018-11-23T16:15:54.924Z,19.03
2018-11-23T16:18:22.648Z,18.40
2018-11-23T16:20:50.415Z,15.17
2018-11-23T16:23:19.462Z,23.33
2018-11-23T16:25:47.797Z,17.83
2018-11-23T16:28:15.504Z,22.23
2018-11-23T16:30:44.787Z,19.10
2018-11-23T16:33:14.095Z,20.00
2018-11-23T16:35:42.298Z,19.07
2018-11-23T16:38:11.653Z,23.70
2018-11-23T16:40:41.876Z,18.00
2018-11-23T16:43:10.701Z,16.87
2018-11-23T16:45:39.889Z,18.37
2018-11-23T16:48:08.755Z,16.60
2018-11-23T16:50:36.550Z,16.33
2018-11-23T16:53:04.589Z,20.60
2018-11-23T16:55:33.058Z,18.27
2018-11-23T16:58:03.125Z,18.50
2018-11-23T17:00:32.328Z,16.87
2018-11-23T17:03:01.544Z,15.43
2018-11-23T17:05:30.873Z,19.00
2018-11-23T17:07:58.649Z,21.50
2018-11-23T17:10:26.449Z,17.53
2018-11-23T17:12:55.027Z,19.80
2018-11-23T17:15:24.215Z,16.90
2018-11-23T17:17:51.980Z,18.40
2018-11-23T17:20:21.178Z,16.00
2018-11-23T17:22:50.257Z,19.03
2018-11-23T17:25:18.990Z,15.40
2018-11-23T17:27:47.045Z,16.87
2018-11-23T17:30:16.972Z,17.10
2018-11-23T17:32:44.675Z,20.90
2018-11-23T17:35:12.694Z,17.90
2018-11-23T17:37:40.897Z,17.13
2018-11-23T17:40:13.358Z,18.90
2018-11-23T17:42:42.153Z,18.90
2018-11-23T17:45:14.650Z,20.20
2018-11-23T17:47:42.486Z,17.10
2018-11-23T17:50:14.053Z,23.43
2018-11-23T17:52:42.653Z,20.50
2018-11-23T17:55:11.295Z,19.53
2018-11-23T17:57:39.797Z,17.70
2018-11-23T18:00:15.363Z,19.57
2018-11-23T18:02:43.637Z,23.73
2018-11-23T18:05:12.791Z,20.40
2018-11-23T18:07:40.772Z,22.77
2018-11-23T18:10:11.296Z,23.50
2018-11-23T18:12:39.081Z,21.83
2018-11-23T18:15:10.736Z,26.70
2018-11-23T18:17:38.535Z,26.10
2018-11-23T18:20:08.518Z,23.20
2018-11-23T18:22:36.357Z,26.13
2018-11-23T18:25:04.867Z,29.73
2018-11-23T18:27:33.632Z,31.13
2018-11-23T18:30:00.506Z,51.40
2018-11-23T18:32:28.288Z,27.60
2018-11-23T18:34:55.995Z,28.03
2018-11-23T18:37:23.872Z,33.63
2018-11-23T18:39:51.702Z,27.40
2018-11-23T18:42:19.478Z,29.13
2018-11-23T18:44:47.321Z,28.43
2018-11-23T18:47:15.233Z,30.13
2018-11-23T18:49:43.105Z,30.60
2018-11-23T18:52:10.934Z,32.03
2018-11-23T18:54:38.663Z,34.27
2018-11-23T18:57:06.550Z,31.20
2018-11-23T18:59:34.317Z,38.90
2018-11-23T19:02:02.094Z,38.63
2018-11-23T19:04:29.837Z,37.97
2018-11-23T19:06:57.598Z,29.23
2018-11-23T19:09:25.379Z,36.80
2018-11-23T19:11:53.908Z,31.90
2018-11-23T19:14:21.650Z,33.67
2018-11-23T19:16:49.482Z,35.50
2018-11-23T19:19:17.225Z,36.63
2018-11-23T19:21:45.027Z,38.60
2018-11-23T19:24:19.720Z,46.73
2018-11-23T19:26:48.151Z,38.03
2018-11-23T19:29:15.924Z,33.67
2018-11-23T19:31:43.754Z,36.57
2018-11-23T19:34:11.512Z,37.27
2018-11-23T19:36:39.271Z,39.17
2018-11-23T19:39:07.965Z,36.20
2018-11-23T19:41:35.668Z,43.20
2018-11-23T19:44:03.489Z,36.17
2018-11-23T19:46:31.290Z,38.23
2018-11-23T19:48:59.042Z,47.80
2018-11-23T19:51:26.857Z,36.33
2018-11-23T19:53:54.713Z,36.47
2018-11-23T19:56:22.657Z,45.80
2018-11-23T19:58:50.570Z,44.00
2018-11-23T20:01:18.338Z,39.87
2018-11-23T20:03:46.129Z,40.53
2018-11-23T20:06:14.083Z,42.20
2018-11-23T20:08:42.010Z,45.00
2018-11-23T20:11:09.749Z,60.60
2018-11-23T20:13:37.548Z,53.87
2018-11-23T20:16:05.686Z,58.33
2018-11-23T20:18:33.596Z,53.50
2018-11-23T20:21:01.448Z,56.03
2018-11-23T20:23:29.781Z,47.97
2018-11-23T20:25:58.003Z,53.87
2018-11-23T20:28:26.331Z,46.40
2018-11-23T20:30:54.163Z,47.70
2018-11-23T20:33:22.030Z,44.63
2018-11-23T20:35:50.998Z,42.00
2018-11-23T20:38:18.725Z,43.73
2018-11-23T20:40:46.442Z,36.80
2018-11-23T20:43:14.149Z,35.93
2018-11-23T20:45:42.989Z,40.63
2018-11-23T20:48:10.765Z,39.30
2018-11-23T20:50:39.485Z,43.23
2018-11-23T20:53:07.694Z,42.33
2018-11-23T20:55:35.416Z,39.40
2018-11-23T20:58:03.197Z,40.80
2018-11-23T21:00:31.097Z,39.83
2018-11-23T21:02:59.654Z,38.30
2018-11-23T21:05:27.412Z,34.37
2018-11-23T21:07:55.175Z,40.83
2018-11-23T21:10:24.755Z,37.63
2018-11-23T21:12:53.034Z,36.70
2018-11-23T21:15:22.113Z,30.87
2018-11-23T21:17:49.897Z,37.87
2018-11-23T21:20:17.765Z,42.43
2018-11-23T21:22:46.224Z,47.27
2018-11-23T21:25:14.955Z,38.00
2018-11-23T21:27:42.663Z,40.63
2018-11-23T21:30:20.524Z,40.30
2018-11-23T21:32:49.790Z,39.70
2018-11-23T21:35:39.166Z,39.97
2018-11-23T21:41:18.854Z,35.27
2018-11-23T21:43:46.607Z,35.43
2018-11-23T21:46:14.425Z,75.70
2018-11-23T21:48:42.324Z,41.30
2018-11-23T21:51:10.146Z,39.10
2018-11-23T21:53:43.511Z,42.67
2018-11-23T21:56:11.282Z,35.43
2018-11-23T21:58:39.074Z,32.43
2018-11-23T22:01:06.788Z,44.13
2018-11-23T22:03:34.574Z,39.00
2018-11-23T22:06:02.415Z,35.97
2018-11-23T22:08:30.937Z,36.20
2018-11-23T22:10:58.616Z,34.83
2018-11-23T22:13:26.368Z,27.23
2018-11-23T22:15:54.118Z,28.63
2018-11-23T22:18:21.849Z,29.40
2018-11-23T22:20:49.614Z,26.63
2018-11-23T22:23:17.378Z,29.87
2018-11-23T22:25:46.130Z,29.10
2018-11-23T22:28:13.872Z,28.13
2018-11-23T22:30:41.564Z,30.47
2018-11-23T22:33:09.307Z,26.87
2018-11-23T22:35:37.002Z,25.07
2018-11-23T22:38:05.000Z,28.40
2018-11-23T22:40:33.674Z,33.87
2018-11-23T22:43:01.382Z,22.57
2018-11-23T22:45:29.086Z,23.03
2018-11-23T22:47:57.667Z,26.97
2018-11-23T22:50:25.453Z,26.20
2018-11-23T22:52:54.093Z,25.60
2018-11-23T22:55:21.871Z,27.53
2018-11-23T22:57:49.589Z,25.07
2018-11-23T23:00:40.300Z,23.13
2018-11-23T23:03:08.416Z,24.63
2018-11-23T23:05:36.203Z,30.60
2018-11-23T23:08:04.408Z,21.97
2018-11-23T23:10:32.142Z,22.57
2018-11-23T23:12:59.910Z,26.47
2018-11-23T23:15:27.645Z,21.93
2018-11-23T23:17:55.419Z,32.00
2018-11-23T23:20:23.257Z,23.00
2018-11-23T23:22:51.085Z,20.73
2018-11-23T23:25:18.826Z,22.27
2018-11-23T23:27:46.512Z,22.27
2018-11-23T23:30:16.873Z,19.10
2018-11-23T23:32:45.333Z,23.90
2018-11-23T23:35:14.032Z,17.60
2018-11-23T23:37:41.881Z,23.90
2018-11-23T23:40:11.449Z,18.63
2018-11-23T23:42:39.302Z,20.70
2018-11-23T23:45:11.209Z,23.10
2018-11-23T23:47:39.017Z,21.10
2018-11-23T23:50:17.663Z,19.43
2018-11-23T23:52:45.438Z,24.60
2018-11-23T23:55:13.149Z,22.03
2018-11-23T23:57:42.129Z,17.43
